Latest Weather Observations for Melbourne (Olympic Park)

IDV60801

Issued at 11:02 pm EDT Friday 12 February 2016 (issued every 30 minutes, with the page automatically refreshed every 10 minutes)

About weather observations | Map of weather stations | Latest weather observations for VIC | Other Formats
Station Details ID: 086338 Name: MELBOURNE (OLYMPIC PARK) Lat: -37.83 Lon: 144.98 Height: 7.53 m
Data from the previous 72 hours. | See also: Recent months at Melbourne (Olympic Park)
Date/Time
EDT
Temp
°C
App
Temp
°C
Dew
Point
Rel
Hum
%
Delta-T
°C
Wind Press
QNH
hPa
Press
MSL
hPa
Rain
since 9 am
mm
Dir
 
Spd
km/h
Gust
km/h
Spd
kts
Gust
kts
12/11:00pm 19.9 22.1 16.5 81 2.0 CALM 0 0 0 0 1011.4 1011.4 0.0
12/10:30pm 20.2 22.2 16.0 77 2.5 CALM 0 6 0 3 1011.6 1011.6 0.0
12/10:00pm 20.9 22.8 15.7 72 3.1 CALM 0 0 0 0 1012.0 1012.0 0.0
12/09:30pm 21.6 23.6 15.9 70 3.4 CALM 0 0 0 0 1011.8 1011.8 0.0
12/09:00pm 22.4 24.3 15.7 66 4.0 CALM 0 6 0 3 1011.4 1011.4 0.0
12/08:30pm 22.9 24.6 16.2 66 4.1 SSW 2 9 1 5 1011.4 1011.4 0.0
12/08:00pm 23.3 23.9 16.8 67 4.0 SSW 9 13 5 7 1011.2 1011.2 0.0
12/07:30pm 23.2 23.2 17.2 69 3.7 SSW 13 22 7 12 1011.1 1011.1 0.0
12/07:00pm 23.2 23.9 17.9 72 3.3 SW 11 19 6 10 1011.2 1011.2 0.0
12/06:30pm 23.2 23.3 17.4 70 3.6 SSW 13 20 7 11 1011.2 1011.2 0.0
12/06:00pm 22.8 21.8 16.6 68 3.8 SSW 17 26 9 14 1011.4 1011.4 0.0
12/05:30pm 23.7 23.1 16.7 65 4.3 SSW 15 24 8 13 1011.5 1011.5 0.0
12/05:00pm 24.1 24.2 16.4 62 4.7 SSW 11 20 6 11 1011.7 1011.7 0.0
12/04:30pm 23.9 23.5 16.2 62 4.7 SSW 13 24 7 13 1012.2 1012.2 0.0
12/04:00pm 24.1 24.2 16.4 62 4.7 SSW 11 20 6 11 1012.5 1012.5 0.0
12/03:30pm 23.9 23.4 15.9 61 4.8 S 13 20 7 11 1012.9 1012.9 0.0
12/03:00pm 23.6 23.0 15.6 61 4.8 SSW 13 20 7 11 1013.4 1013.4 0.0
12/02:30pm 23.7 23.4 15.5 60 4.9 SSW 11 19 6 10 1013.8 1013.8 0.0
12/02:00pm 22.9 22.3 14.7 60 4.8 S 11 20 6 11 1014.3 1014.3 0.0
12/01:30pm 22.5 21.9 14.6 61 4.7 S 11 17 6 9 1014.5 1014.5 0.0
12/01:00pm 22.3 21.7 14.7 62 4.5 SW 11 19 6 10 1014.9 1014.9 0.0
12/12:30pm 22.0 20.9 14.4 62 4.5 SW 13 20 7 11 1015.2 1015.2 0.0
12/12:00pm 22.0 21.5 14.9 64 4.2 SSW 11 20 6 11 1015.5 1015.5 0.0
12/11:30am 21.5 20.3 13.9 62 4.4 SSW 13 20 7 11 1015.8 1015.8 0.0
12/11:00am 22.2 21.5 13.3 57 5.1 E 9 17 5 9 1015.8 1015.8 0.0
12/10:30am 20.7 20.6 13.4 63 4.2 N 6 11 3 6 1016.0 1016.0 0.0
12/10:00am 20.5 20.3 13.0 62 4.3 E 6 15 3 8 1016.3 1016.3 0.0
12/09:30am 19.4 18.7 13.1 67 3.6 E 9 20 5 11 1016.6 1016.6 0.0
12/09:00am 19.0 19.0 13.6 71 3.1 E 6 13 3 7 1016.6 1016.6 0.0
12/08:30am 18.6 19.1 13.9 74 2.7 ESE 4 9 2 5 1016.6 1016.6 0.0
12/08:00am 18.1 18.6 14.0 77 2.3 SE 4 9 2 5 1016.6 1016.6 0.0
12/07:30am 17.5 17.6 13.8 79 2.1 ESE 6 9 3 5 1016.6 1016.6 0.0
12/07:00am 17.4 17.9 13.9 80 2.0 SSE 4 11 2 6 1016.5 1016.5 0.0
12/06:30am 17.3 18.2 14.0 81 1.9 SSE 2 9 1 5 1016.4 1016.4 0.0
12/06:00am 17.3 18.3 14.2 82 1.8 S 2 9 1 5 1016.2 1016.2 0.0
12/05:30am 17.1 16.6 13.8 81 1.9 SSE 9 13 5 7 1015.8 1015.8 0.0
12/05:00am 17.0 18.4 14.3 84 1.5 CALM 0 6 0 3 1015.7 1015.7 0.0
12/04:30am 16.9 18.2 14.2 84 1.5 CALM 0 0 0 0 1015.9 1015.9 0.0
12/04:00am 17.0 17.8 13.7 81 1.9 SSW 2 6 1 3 1016.0 1016.0 0.0
12/03:30am 17.1 17.5 13.8 81 1.9 S 4 9 2 5 1015.9 1015.9 0.0
12/03:00am 17.3 17.1 13.6 79 2.1 S 7 11 4 6 1016.1 1016.1 0.0
12/02:30am 17.2 17.2 13.7 80 2.0 SSE 6 11 3 6 1016.1 1016.1 0.0
12/02:00am 17.3 18.1 13.6 79 2.1 S 2 6 1 3 1016.4 1016.4 0.0
12/01:30am 17.6 17.6 13.5 77 2.3 S 6 9 3 5 1016.7 1016.7 0.0
12/01:00am 17.9 17.9 13.6 76 2.4 S 6 15 3 8 1017.2 1017.2 0.0
12/12:30am 17.9 17.7 13.6 76 2.4 S 7 11 4 6 1017.4 1017.4 0.0
12/12:00am 18.2 17.6 13.5 74 2.7 SSE 9 15 5 8 1017.3 1017.3 0.0
 
Date/Time
EDT
Temp
°C
App
Temp
°C
Dew
Point
Rel
Hum
%
Delta-T
°C
Wind Press
QNH
hPa
Press
MSL
hPa
Rain
since 9 am
mm
Dir
 
Spd
km/h
Gust
km/h
Spd
kts
Gust
kts
11/11:30pm 18.4 17.8 13.5 73 2.8 SSE 9 19 5 10 1017.7 1017.7 0.0
11/11:00pm 18.7 17.4 13.6 72 2.9 SSE 13 22 7 12 1017.8 1017.8 0.0
11/10:30pm 18.9 17.9 13.3 70 3.2 SSE 11 20 6 11 1017.9 1017.9 0.0
11/10:00pm 19.3 18.5 12.8 66 3.7 SSE 9 19 5 10 1017.7 1017.7 0.0
11/09:30pm 19.6 18.0 12.8 65 3.8 SSE 13 22 7 12 1017.2 1017.2 0.0
11/09:00pm 20.3 19.1 12.8 62 4.2 SSE 11 17 6 9 1016.3 1016.3 0.0
11/08:30pm 20.6 19.0 12.8 61 4.4 SSE 13 24 7 13 1016.1 1016.1 0.0
11/08:00pm 21.1 19.6 13.0 60 4.6 S 13 26 7 14 1016.0 1016.0 0.0
11/07:30pm 22.0 20.2 13.4 58 5.0 S 15 28 8 15 1015.8 1015.8 0.0
11/07:00pm 22.6 21.4 13.9 58 5.1 S 13 24 7 13 1015.5 1015.5 0.0
11/06:30pm 22.3 21.2 15.2 64 4.2 SSW 15 30 8 16 1015.2 1015.2 0.0
11/06:00pm 22.3 20.5 15.4 65 4.1 SSW 19 32 10 17 1015.1 1015.1 0.0
11/05:30pm 22.4 20.7 15.7 66 4.0 SSW 19 32 10 17 1015.1 1015.1 0.0
11/05:00pm 22.3 19.8 15.2 64 4.2 SSW 22 41 12 22 1015.2 1015.2 0.0
11/04:30pm 23.0 21.5 15.3 62 4.6 SSW 17 39 9 21 1015.1 1015.1 0.0
11/04:00pm 23.1 21.5 14.9 60 4.9 SSW 17 32 9 17 1015.1 1015.1 0.0
11/03:30pm 22.5 20.3 14.4 60 4.8 SSW 19 30 10 16 1014.9 1014.9 0.0
11/03:00pm 23.6 22.4 15.1 59 5.1 SSW 15 33 8 18 1015.0 1015.0 0.0
11/02:30pm 22.8 21.2 14.9 61 4.7 SSW 17 28 9 15 1015.3 1015.3 0.0
11/02:00pm 22.7 21.1 15.0 61 4.6 SSW 17 26 9 14 1015.5 1015.5 0.0
11/01:30pm 22.1 20.3 14.5 62 4.5 SSW 17 30 9 16 1015.6 1015.6 0.0
11/01:00pm 22.5 21.3 14.1 59 4.9 SSW 13 22 7 12 1015.7 1015.7 0.0
11/12:30pm 22.1 20.8 13.7 59 4.9 SSW 13 24 7 13 1016.1 1016.1 0.0
11/12:00pm 21.8 19.8 13.9 61 4.6 SSW 17 26 9 14 1016.6 1016.6 0.0
11/11:30am 21.7 20.5 12.8 57 5.1 S 11 20 6 11 1016.9 1016.9 0.0
11/11:00am 21.8 20.1 11.2 51 5.9 SSE 11 20 6 11 1017.2 1017.2 0.0
11/10:30am 21.7 21.0 12.0 54 5.4 SSE 7 24 4 13 1017.2 1017.2 0.0
11/10:00am 21.2 20.1 12.1 56 5.1 ESE 9 19 5 10 1017.2 1017.2 0.0
11/09:30am 20.3 19.1 12.8 62 4.2 SE 11 17 6 9 1017.4 1017.4 0.0
11/09:00am 19.7 18.3 13.4 67 3.6 SSE 13 19 7 10 1017.3 1017.3 0.0
11/08:30am 19.0 18.2 14.1 73 2.8 SE 11 17 6 9 1017.2 1017.2 0.0
11/08:00am 18.7 18.4 14.4 76 2.5 SE 9 15 5 8 1017.0 1017.0 0.0
11/07:30am 18.1 17.7 14.2 78 2.2 SE 9 17 5 9 1016.7 1016.7 0.0
11/07:00am 18.2 18.2 14.3 78 2.2 SSE 7 13 4 7 1016.4 1016.4 0.0
11/06:30am 18.4 18.4 14.1 76 2.5 SSE 7 11 4 6 1016.1 1016.1 0.0
11/06:00am 18.5 18.1 14.0 75 2.6 SSE 9 17 5 9 1015.7 1015.7 0.0
11/05:30am 18.6 18.1 13.9 74 2.7 SSE 9 15 5 8 1015.6 1015.6 0.0
11/05:00am 18.6 18.4 13.7 73 2.8 SSE 7 15 4 8 1015.4 1015.4 0.0
11/04:30am 18.7 18.5 13.6 72 2.9 SSE 7 11 4 6 1015.3 1015.3 0.0
11/04:00am 18.6 18.4 13.7 73 2.8 SSE 7 15 4 8 1015.3 1015.3 0.0
11/03:30am 18.5 18.3 13.6 73 2.8 SSE 7 13 4 7 1015.3 1015.3 0.0
11/03:00am 18.5 18.4 13.8 74 2.7 SSE 7 13 4 7 1015.5 1015.5 0.0
11/02:30am 18.5 18.4 13.8 74 2.7 SE 7 11 4 6 1015.7 1015.7 0.0
11/02:00am 18.4 18.4 13.7 74 2.7 SSE 6 11 3 6 1016.0 1016.0 0.0
11/01:30am 18.4 18.5 13.9 75 2.6 SSE 6 9 3 5 1016.2 1016.2 0.0
11/01:00am 18.3 18.2 13.8 75 2.6 SSE 7 11 4 6 1016.3 1016.3 0.0
11/12:30am 18.2 18.1 13.9 76 2.5 SSE 7 13 4 7 1016.5 1016.5 0.0
11/12:00am 18.1 18.0 13.8 76 2.4 SSE 7 15 4 8 1016.5 1016.5 0.0
 
Date/Time
EDT
Temp
°C
App
Temp
°C
Dew
Point
Rel
Hum
%
Delta-T
°C
Wind Press
QNH
hPa
Press
MSL
hPa
Rain
since 9 am
mm
Dir
 
Spd
km/h
Gust
km/h
Spd
kts
Gust
kts
10/11:30pm 18.3 18.2 13.8 75 2.6 SSE 7 15 4 8 1016.6 1016.6 0.0
10/11:00pm 18.6 18.1 13.7 73 2.8 SSE 9 20 5 11 1016.6 1016.6 0.0
10/10:30pm 19.1 18.4 13.1 68 3.4 SSE 9 15 5 8 1016.4 1016.4 0.0
10/10:00pm 19.6 18.4 12.8 65 3.8 S 11 19 6 10 1016.3 1016.3 0.0
10/09:30pm 20.0 18.7 12.5 62 4.2 S 11 20 6 11 1015.8 1015.8 0.0
10/09:00pm 20.2 19.6 13.4 65 3.9 S 9 17 5 9 1015.4 1015.4 0.0
10/08:30pm 20.1 19.2 14.9 72 3.0 SSW 13 24 7 13 1015.2 1015.2 0.0
10/08:00pm 20.2 19.1 14.3 69 3.4 SSW 13 20 7 11 1015.0 1015.0 0.0
10/07:30pm 21.1 20.1 14.5 66 3.9 SSW 13 24 7 13 1014.8 1014.8 0.0
10/07:00pm 21.4 20.0 14.6 65 4.0 SSW 15 22 8 12 1014.6 1014.6 0.0
10/06:30pm 22.0 20.8 14.1 61 4.6 SSW 13 22 7 12 1014.3 1014.3 0.0
10/06:00pm 21.9 20.4 14.3 62 4.4 SSW 15 22 8 12 1014.2 1014.2 0.0
10/05:30pm 22.1 20.9 14.0 60 4.7 S 13 22 7 12 1014.2 1014.2 0.0
10/05:00pm 21.6 20.1 14.3 63 4.3 SSW 15 24 8 13 1014.2 1014.2 0.0
10/04:30pm 21.6 19.6 14.0 62 4.4 SSW 17 24 9 13 1014.2 1014.2 0.0
10/04:00pm 22.6 21.6 14.7 61 4.7 SSW 13 22 7 12 1014.4 1014.4 0.0
10/03:30pm 21.9 20.2 13.5 59 4.8 SSW 15 22 8 12 1014.5 1014.5 0.0
10/03:00pm 21.6 19.6 14.0 62 4.4 S 17 28 9 15 1014.7 1014.7 0.0
10/02:30pm 21.9 20.3 14.0 61 4.6 SSW 15 26 8 14 1014.9 1014.9 0.0
10/02:00pm 22.3 21.0 13.6 58 5.0 SSW 13 20 7 11 1014.9 1014.9 0.0
10/01:30pm 21.8 20.7 14.4 63 4.3 SSW 13 22 7 12 1015.2 1015.2 0.0
10/01:00pm 21.7 20.5 12.8 57 5.1 SW 11 20 6 11 1015.4 1015.4 0.0
10/12:30pm 21.0 19.3 13.7 63 4.2 SSW 15 24 8 13 1015.8 1015.8 0.0
10/12:00pm 21.9 20.9 14.5 63 4.3 SSW 13 22 7 12 1015.9 1015.9 0.0
10/11:30am 21.2 20.7 13.9 63 4.2 SSW 9 17 5 9 1016.0 1016.0 0.0
10/11:00am 22.5 23.3 13.6 57 5.2 ENE 2 7 1 4 1016.2 1016.2 0.0
10/10:30am 20.1 21.1 14.2 69 3.4 W 2 7 1 4 1016.3 1016.3 0.0
10/10:00am 19.6 19.7 14.0 70 3.2 SE 6 15 3 8 1016.3 1016.3 0.0
10/09:30am 19.3 19.5 14.1 72 3.0 SE 6 9 3 5 1016.4 1016.4 0.0
10/09:00am 19.1 19.6 14.1 73 2.9 SSE 4 9 2 5 1016.4 1016.4 0.0
10/08:30am 19.0 19.0 14.3 74 2.7 SSE 7 11 4 6 1016.2 1016.2 0.0
10/08:00am 19.1 19.8 14.4 74 2.7 S 4 9 2 5 1015.7 1015.7 0.0
10/07:30am 19.0 19.6 14.3 74 2.7 SSE 4 9 2 5 1015.4 1015.4 0.0
10/07:00am 18.8 18.5 14.3 75 2.6 SE 9 13 5 7 1015.2 1015.2 0.0
10/06:30am 18.8 19.5 14.5 76 2.5 SE 4 7 2 4 1015.0 1015.0 0.0
10/06:00am 18.7 19.0 14.6 77 2.4 ESE 6 11 3 6 1014.6 1014.6 0.0
10/05:30am 18.7 19.4 14.6 77 2.4 SSE 4 11 2 6 1014.8 1014.8 0.0
10/05:00am 18.8 19.7 14.1 74 2.7 SW 2 7 1 4 1014.9 1014.9 0.0
10/04:30am 18.8 19.0 14.1 74 2.7 SSW 6 11 3 6 1015.2 1015.2 0.0
10/04:00am 18.7 19.4 14.6 77 2.4 SSW 4 9 2 5 1015.2 1015.2 0.0
10/03:30am 18.7 19.6 15.0 79 2.2 SSE 4 7 2 4 1015.3 1015.3 0.0
10/03:00am 18.6 20.4 15.5 82 1.8 CALM 0 6 0 3 1015.4 1015.4 0.0
10/02:30am 18.3 19.3 15.4 83 1.7 SSE 4 9 2 5 1015.7 1015.7 0.0
10/02:00am 18.2 18.9 15.6 85 1.5 SSE 6 9 3 5 1016.0 1016.0 0.0
10/01:30am 17.9 19.4 15.7 87 1.3 S 2 7 1 4 1016.2 1016.2 0.0
10/01:00am 17.6 19.5 15.8 89 1.1 CALM 0 0 0 0 1016.6 1016.6 0.0
10/12:30am 17.5 19.2 15.3 87 1.3 CALM 0 7 0 4 1016.6 1016.6 0.0
10/12:00am 17.8 19.1 15.2 85 1.5 S 2 7 1 4 1016.7 1016.7 0.0
 
Date/Time
EDT
Temp
°C
App
Temp
°C
Dew
Point
Rel
Hum
%
Delta-T
°C
Wind Press
QNH
hPa
Press
MSL
hPa
Rain
since 9 am
mm
Dir
 
Spd
km/h
Gust
km/h
Spd
kts
Gust
kts
09/11:30pm 17.9 19.5 15.0 83 1.7 CALM 0 0 0 0 1017.0 1017.0 0.0

Other Formats:

Comma delimited format used in spreadsheet applications
http://www.bom.gov.au/fwo/IDV60801/IDV60801.95936.axf

JavaScript Object Notation format (JSON) in row-major order
http://www.bom.gov.au/fwo/IDV60801/IDV60801.95936.json